Time;durP1;ratioP1;P1;durP2;ratioP2;P2;SDS_P1;SDS_P2;PMS_P1;PMS_P2;Temp;Humidity;BMP_temperature;BMP_pressure;BME280_temperature;BME280_humidity;BME280_pressure;Samples;Min_cycle;Max_cycle;Signal;HPM_P1;HPM_P2
2021/07/23 00:04:15;;;;;;;21.20;10.45;;;26.90;36.20;;;;;;20731271;28;84444;-66
2021/07/23 00:14:16;;;;;;;19.15;9.80;;;26.80;36.50;;;;;;20711700;28;83188;-66
2021/07/23 00:24:19;;;;;;;18.73;9.23;;;26.60;35.50;;;;;;20742410;28;83308;-66
2021/07/23 00:34:21;;;;;;;17.48;9.63;;;26.60;35.50;;;;;;20735492;28;80871;-66
2021/07/23 00:44:24;;;;;;;17.30;8.45;;;26.40;35.60;;;;;;20717952;28;80707;-66
2021/07/23 00:54:30;;;;;;;17.30;8.27;;;26.30;35.00;;;;;;20717658;28;80673;-66
2021/07/23 01:04:32;;;;;;;15.32;8.18;;;26.20;34.50;;;;;;20714317;28;80743;-65
2021/07/23 01:14:35;;;;;;;16.92;8.88;;;26.00;34.20;;;;;;20751617;28;80907;-65
2021/07/23 01:24:39;;;;;;;18.52;8.48;;;25.90;34.30;;;;;;20726618;28;80654;-64
2021/07/23 01:34:42;;;;;;;17.20;7.32;;;25.80;34.30;;;;;;20778775;28;80750;-65
2021/07/23 01:44:50;;;;;;;18.98;8.32;;;25.70;34.30;;;;;;20770778;28;81786;-66
2021/07/23 01:54:54;;;;;;;14.77;7.40;;;25.70;34.50;;;;;;20731835;28;80240;-65
2021/07/23 02:04:59;;;;;;;18.33;8.30;;;25.60;34.60;;;;;;20708607;28;81014;-65
2021/07/23 02:15:05;;;;;;;20.15;7.60;;;25.40;34.50;;;;;;20714814;28;80568;-65
2021/07/23 02:25:09;;;;;;;16.23;7.97;;;25.30;35.00;;;;;;20732859;28;80689;-65
2021/07/23 02:35:18;;;;;;;13.77;7.60;;;25.00;35.60;;;;;;20747298;28;80470;-69
2021/07/23 02:45:21;;;;;;;15.43;8.15;;;24.90;35.30;;;;;;20729184;28;81908;-69
2021/07/23 02:55:27;;;;;;;14.48;7.78;;;24.80;35.50;;;;;;20736350;28;80921;-68
2021/07/23 03:05:33;;;;;;;21.08;10.63;;;24.70;35.60;;;;;;20710643;28;80489;-66
2021/07/23 03:15:43;;;;;;;17.33;10.63;;;24.60;35.70;;;;;;20693103;28;84057;-65
2021/07/23 03:25:47;;;;;;;20.65;11.90;;;24.50;36.10;;;;;;20722140;28;83632;-65
2021/07/23 03:35:57;;;;;;;21.88;11.63;;;24.40;36.40;;;;;;20716892;28;82835;-66
2021/07/23 03:46:04;;;;;;;20.65;11.25;;;24.40;36.80;;;;;;20689961;28;84336;-67
2021/07/23 03:56:08;;;;;;;20.58;10.50;;;24.30;37.40;;;;;;20690889;28;83230;-67
2021/07/23 04:06:12;;;;;;;17.85;10.32;;;24.20;37.70;;;;;;20708256;28;83332;-68
2021/07/23 04:16:20;;;;;;;19.25;9.32;;;24.20;37.70;;;;;;20747732;28;83261;-67
2021/07/23 04:26:34;;;;;;;20.42;8.07;;;24.10;39.40;;;;;;20726940;28;83458;-66
2021/07/23 04:36:39;;;;;;;19.73;8.27;;;24.10;39.30;;;;;;20741686;28;80954;-67
2021/07/23 04:46:44;;;;;;;15.57;9.00;;;23.90;38.80;;;;;;20727170;28;81356;-68
2021/07/23 04:56:52;;;;;;;19.38;8.10;;;23.80;38.90;;;;;;20725739;28;80745;-66
2021/07/23 05:06:54;;;;;;;17.42;9.23;;;23.60;39.20;;;;;;20719586;28;80682;-71
2021/07/23 05:17:00;;;;;;;17.20;8.38;;;23.60;39.20;;;;;;20723678;28;80680;-70
2021/07/23 05:27:03;;;;;;;16.02;8.18;;;23.60;39.10;;;;;;20752739;28;80771;-70
2021/07/23 05:37:10;;;;;;;13.65;7.93;;;23.50;39.20;;;;;;20745067;28;80040;-67
2021/07/23 05:47:12;;;;;;;18.88;7.72;;;23.50;39.00;;;;;;20740582;28;80468;-68
2021/07/23 05:57:17;;;;;;;18.00;9.10;;;23.50;39.30;;;;;;20724304;28;80779;-67
2021/07/23 06:07:21;;;;;;;25.63;8.70;;;23.60;39.30;;;;;;20714149;28;80422;-67
2021/07/23 06:17:23;;;;;;;19.95;9.52;;;23.70;40.80;;;;;;20721086;28;81258;-67
2021/07/23 06:27:27;;;;;;;20.00;8.25;;;23.80;41.90;;;;;;20735003;28;82183;-66
2021/07/23 06:37:32;;;;;;;29.17;9.07;;;23.90;40.30;;;;;;20771852;28;80693;-67
2021/07/23 06:47:37;;;;;;;33.70;9.43;;;24.20;38.00;;;;;;20712297;28;80748;-68
2021/07/23 06:57:40;;;;;;;22.35;8.68;;;24.50;35.90;;;;;;20748837;28;81628;-71
2021/07/23 07:07:42;;;;;;;48.67;24.30;;;24.90;33.60;;;;;;20749749;28;81615;-71
2021/07/23 07:17:47;;;;;;;42.50;24.50;;;25.10;34.20;;;;;;20719598;28;83019;-71
2021/07/23 07:27:49;;;;;;;36.35;18.60;;;25.10;34.70;;;;;;20726045;28;83837;-71
2021/07/23 07:37:54;;;;;;;24.10;9.63;;;25.40;33.60;;;;;;20729839;28;83598;-70
2021/07/23 07:47:57;;;;;;;24.08;11.15;;;25.70;31.70;;;;;;20741481;28;83568;-69
2021/07/23 07:57:58;;;;;;;18.60;9.02;;;26.10;30.90;;;;;;20708869;28;83070;-68
2021/07/23 08:08:03;;;;;;;18.15;9.18;;;26.40;30.20;;;;;;20701814;28;83537;-69
2021/07/23 08:18:08;;;;;;;20.27;9.77;;;26.60;28.90;;;;;;20781605;28;80624;-69
2021/07/23 08:28:10;;;;;;;18.45;9.40;;;26.90;29.20;;;;;;20772223;28;80670;-70
2021/07/23 08:38:16;;;;;;;22.65;8.27;;;27.10;27.70;;;;;;20712180;28;80792;-69
2021/07/23 08:48:20;;;;;;;11.25;6.57;;;27.30;26.80;;;;;;20741333;28;81682;-70
2021/07/23 08:58:23;;;;;;;16.58;7.53;;;27.60;26.30;;;;;;20786617;28;80743;-69
2021/07/23 09:08:25;;;;;;;11.05;6.13;;;27.80;25.60;;;;;;20749486;28;80937;-69
2021/07/23 09:18:41;;;;;;;11.45;6.00;;;28.10;25.20;;;;;;20745121;28;81215;-72
2021/07/23 09:28:47;;;;;;;13.43;5.75;;;28.40;25.10;;;;;;20764633;28;81071;-72
2021/07/23 09:38:49;;;;;;;10.65;5.15;;;28.90;24.20;;;;;;20732941;28;81175;-71
2021/07/23 09:48:52;;;;;;;9.75;4.60;;;29.40;23.80;;;;;;20760610;28;80606;-72
2021/07/23 09:59:00;;;;;;;13.18;5.38;;;29.70;24.30;;;;;;20747702;28;80730;-71
2021/07/23 10:09:15;;;;;;;16.48;5.75;;;30.10;22.90;;;;;;20762260;28;80657;-71
2021/07/23 10:19:21;;;;;;;8.88;5.30;;;30.50;23.00;;;;;;20769544;28;80834;-71
2021/07/23 10:29:42;;;;;;;10.23;6.07;;;31.00;21.80;;;;;;20761782;28;81132;-71
2021/07/23 10:40:06;;;;;;;13.85;5.95;;;31.40;22.00;;;;;;20775905;28;81508;-71
2021/07/23 10:50:34;;;;;;;12.25;5.95;;;31.80;21.60;;;;;;20763647;28;81231;-72
2021/07/23 11:00:50;;;;;;;13.02;6.60;;;32.40;20.80;;;;;;20771908;28;82031;-71
2021/07/23 11:10:55;;;;;;;16.15;7.93;;;34.10;19.60;;;;;;20762242;28;81706;-71
2021/07/23 11:20:57;;;;;;;15.45;8.55;;;35.00;18.80;;;;;;20758702;28;81253;-71
2021/07/23 11:31:00;;;;;;;15.90;9.82;;;36.20;18.50;;;;;;20747484;28;80842;-72
2021/07/23 11:41:06;;;;;;;16.00;9.95;;;37.40;17.50;;;;;;20744474;28;80854;-70
2021/07/23 11:51:07;;;;;;;15.13;9.38;;;39.10;16.50;;;;;;20768624;28;81022;-71
2021/07/23 12:01:18;;;;;;;14.77;9.75;;;40.90;15.40;;;;;;20759979;28;81019;-72
2021/07/23 12:11:23;;;;;;;15.85;9.13;;;40.50;15.80;;;;;;20736168;28;80872;-72
2021/07/23 12:21:26;;;;;;;13.38;9.85;;;40.30;15.90;;;;;;20777232;28;81992;-72
2021/07/23 12:31:28;;;;;;;15.80;9.63;;;41.40;15.20;;;;;;20746206;28;80617;-75
2021/07/23 12:41:30;;;;;;;14.63;8.45;;;43.50;13.60;;;;;;20768118;28;80590;-75
2021/07/23 12:51:31;;;;;;;13.88;8.40;;;43.40;13.40;;;;;;20755640;28;81461;-75
2021/07/23 13:01:33;;;;;;;9.13;6.60;;;42.60;13.60;;;;;;20760735;28;80609;-75
2021/07/23 13:11:34;;;;;;;8.10;7.05;;;43.00;12.90;;;;;;20767445;28;80873;-73
2021/07/23 13:21:38;;;;;;;11.25;6.47;;;44.40;13.00;;;;;;20750972;28;80811;-72
2021/07/23 13:31:40;;;;;;;11.55;9.15;;;45.20;12.70;;;;;;20737685;28;80778;-73
2021/07/23 13:41:44;;;;;;;7.28;5.97;;;45.60;12.30;;;;;;20751809;28;80670;-72
2021/07/23 13:51:46;;;;;;;8.38;5.10;;;44.60;12.70;;;;;;20713794;28;81283;-72
2021/07/23 14:01:48;;;;;;;6.95;4.80;;;41.30;13.50;;;;;;20784167;28;80644;-73
2021/07/23 14:11:50;;;;;;;9.50;5.03;;;38.40;14.90;;;;;;20776629;28;81203;-72
2021/07/23 14:21:52;;;;;;;5.40;4.20;;;37.20;15.70;;;;;;20705783;28;81509;-72
2021/07/23 14:31:55;;;;;;;6.50;4.63;;;36.40;16.00;;;;;;20754785;28;80621;-73
2021/07/23 14:41:57;;;;;;;7.85;5.10;;;35.70;16.60;;;;;;20790827;28;80119;-73
2021/07/23 14:51:59;;;;;;;6.38;4.90;;;35.50;17.10;;;;;;20763346;28;80329;-73
2021/07/23 15:02:02;;;;;;;6.95;5.20;;;35.30;17.60;;;;;;20710146;28;80316;-72
2021/07/23 15:12:04;;;;;;;7.55;4.75;;;35.00;17.80;;;;;;20706657;28;80700;-73
2021/07/23 15:22:06;;;;;;;18.45;7.95;;;34.50;18.20;;;;;;20738421;28;80763;-71
2021/07/23 15:32:09;;;;;;;46.40;8.40;;;34.10;20.20;;;;;;20728489;28;81186;-72
2021/07/23 15:42:14;;;;;;;13.02;5.50;;;33.30;23.20;;;;;;20734469;28;81717;-72
2021/07/23 15:52:16;;;;;;;7.85;4.60;;;33.50;21.20;;;;;;20763830;28;81910;-70
2021/07/23 16:02:17;;;;;;;9.70;4.60;;;33.50;21.00;;;;;;20758265;28;80684;-69
2021/07/23 16:12:20;;;;;;;6.78;3.38;;;33.50;21.10;;;;;;20738201;28;80824;-70
2021/07/23 16:22:23;;;;;;;6.70;4.22;;;33.40;21.30;;;;;;20780845;28;80789;-71
2021/07/23 16:32:24;;;;;;;7.05;3.90;;;33.30;21.50;;;;;;20749347;28;81991;-73
2021/07/23 16:42:27;;;;;;;9.15;4.05;;;33.20;21.80;;;;;;20788793;28;80241;-71
2021/07/23 16:52:28;;;;;;;5.28;3.17;;;33.00;22.00;;;;;;20795678;28;81980;-71
2021/07/23 17:02:30;;;;;;;6.32;3.00;;;32.90;22.00;;;;;;20759072;28;80976;-69
2021/07/23 17:12:33;;;;;;;7.63;3.33;;;32.60;22.30;;;;;;20774724;28;81662;-73
2021/07/23 17:22:36;;;;;;;3.85;2.75;;;32.50;22.30;;;;;;20785658;28;81768;-71
2021/07/23 17:32:39;;;;;;;4.10;2.70;;;32.50;22.60;;;;;;20737857;28;80699;-71
2021/07/23 17:42:46;;;;;;;4.65;3.00;;;32.30;22.60;;;;;;20729575;28;80150;-71
2021/07/23 17:52:50;;;;;;;17.10;12.65;;;32.20;22.70;;;;;;20744601;28;80690;-70
2021/07/23 18:02:54;;;;;;;7.78;6.07;;;32.10;22.80;;;;;;20737240;28;82969;-68
2021/07/23 18:12:56;;;;;;;23.05;18.25;;;31.90;21.90;;;;;;20746904;28;84756;-72
2021/07/23 18:22:58;;;;;;;11.30;6.15;;;31.80;20.90;;;;;;20730626;28;83101;-72
2021/07/23 18:33:00;;;;;;;6.75;4.57;;;31.50;21.50;;;;;;20745176;28;84642;-71
2021/07/23 18:43:03;;;;;;;10.93;6.78;;;31.40;21.00;;;;;;20736859;28;80649;-73
2021/07/23 18:53:05;;;;;;;7.43;4.78;;;31.20;21.00;;;;;;20749890;28;80469;-72
2021/07/23 19:03:08;;;;;;;10.70;6.93;;;31.00;19.90;;;;;;20743993;28;81463;-73
2021/07/23 19:13:10;;;;;;;8.93;5.32;;;30.90;21.10;;;;;;20739697;28;80876;-72
2021/07/23 19:23:12;;;;;;;8.70;5.18;;;30.70;19.70;;;;;;20717413;28;80649;-71
2021/07/23 19:33:15;;;;;;;10.40;6.32;;;30.50;20.20;;;;;;20727516;28;81626;-74
2021/07/23 19:43:17;;;;;;;11.60;7.03;;;30.40;19.80;;;;;;20775588;28;81778;-71
2021/07/23 19:53:20;;;;;;;9.77;5.55;;;30.20;19.30;;;;;;20757838;28;80718;-72
2021/07/23 20:03:25;;;;;;;7.70;4.68;;;30.10;19.80;;;;;;20761097;28;80491;-71
2021/07/23 20:13:28;;;;;;;7.53;3.97;;;30.00;19.90;;;;;;20741807;28;80724;-72
2021/07/23 20:23:31;;;;;;;6.30;3.83;;;29.80;20.00;;;;;;20789932;28;81022;-72
2021/07/23 20:33:34;;;;;;;11.77;8.45;;;29.70;19.70;;;;;;20748054;28;81817;-68
2021/07/23 20:43:36;;;;;;;15.73;12.00;;;29.50;20.50;;;;;;20753322;28;80150;-68
2021/07/23 20:53:38;;;;;;;7.30;4.65;;;29.40;20.90;;;;;;20737525;28;82983;-69
2021/07/23 21:03:40;;;;;;;26.77;18.90;;;29.30;21.40;;;;;;20745453;28;83153;-70
2021/07/23 21:13:42;;;;;;;5.13;3.42;;;29.20;21.80;;;;;;20739371;28;83105;-70
2021/07/23 21:23:43;;;;;;;6.22;2.83;;;29.10;22.30;;;;;;20754050;28;83380;-70
2021/07/23 21:33:46;;;;;;;13.50;9.10;;;29.00;22.50;;;;;;20756376;28;80560;-68
2021/07/23 21:43:48;;;;;;;8.30;5.90;;;28.90;22.80;;;;;;20715278;28;80727;-68
2021/07/23 21:53:50;;;;;;;18.23;12.43;;;28.70;22.90;;;;;;20715083;28;80718;-70
2021/07/23 22:03:52;;;;;;;6.13;2.80;;;28.60;23.00;;;;;;20735648;28;82641;-71
2021/07/23 22:13:54;;;;;;;21.25;16.38;;;28.40;24.70;;;;;;20733399;28;83352;-69
2021/07/23 22:23:56;;;;;;;4.75;2.05;;;28.00;27.50;;;;;;20722211;28;83949;-72
2021/07/23 22:33:57;;;;;;;9.38;4.95;;;27.70;28.00;;;;;;20735222;28;83506;-73
2021/07/23 22:43:59;;;;;;;3.90;2.20;;;27.40;28.40;;;;;;20745406;28;81802;-72
2021/07/23 22:54:02;;;;;;;3.97;1.80;;;27.20;29.00;;;;;;20725253;28;80897;-70
2021/07/23 23:04:03;;;;;;;5.65;1.77;;;27.00;29.30;;;;;;20722194;28;81102;-71
2021/07/23 23:14:06;;;;;;;4.40;1.83;;;27.00;29.60;;;;;;20746538;28;81061;-72
2021/07/23 23:24:08;;;;;;;2.83;1.70;;;26.90;29.70;;;;;;20725943;28;80570;-72
2021/07/23 23:34:09;;;;;;;4.70;1.73;;;26.80;30.10;;;;;;20724048;28;80697;-71
2021/07/23 23:44:11;;;;;;;4.55;1.88;;;26.60;30.50;;;;;;20709623;28;81373;-71
2021/07/23 23:54:13;;;;;;;3.58;1.48;;;26.50;31.30;;;;;;20707169;28;81047;-70
